createdAt,value
2023-05-15T00:00:33.095Z,21.0
2023-05-15T00:15:32.098Z,21.0
2023-05-15T00:30:32.995Z,21
2023-05-15T00:45:33.067Z,21
2023-05-15T01:00:33.775Z,21
2023-05-15T01:15:33.280Z,21
2023-05-15T01:30:33.063Z,20.9
2023-05-15T01:45:32.792Z,20.9
2023-05-15T02:00:34.034Z,20.9
2023-05-15T02:15:33.404Z,20.9
2023-05-15T02:30:33.614Z,20.9
2023-05-15T02:45:33.105Z,20.9
2023-05-15T03:00:33.848Z,20.9
2023-05-15T03:15:32.149Z,20.9
2023-05-15T03:30:34.153Z,20.9
2023-05-15T03:45:33.391Z,20.8
2023-05-15T04:00:33.553Z,20.8
2023-05-15T04:15:32.373Z,20.8
2023-05-15T04:30:34.001Z,20.8
2023-05-15T04:45:33.884Z,20.8
2023-05-15T05:00:33.784Z,20.8
2023-05-15T05:15:33.156Z,20.9
2023-05-15T05:30:33.417Z,21.0
2023-05-15T05:45:33.689Z,21.2
2023-05-15T06:00:33.722Z,21.3
2023-05-15T06:15:33.409Z,21.5
2023-05-15T06:30:33.400Z,21.6
2023-05-15T06:45:33.095Z,21.7
2023-05-15T07:00:33.618Z,21.8
2023-05-15T07:15:34.025Z,21.9
2023-05-15T07:30:33.456Z,21.9
2023-05-15T07:45:33.488Z,22
2023-05-15T08:00:33.409Z,22
2023-05-15T08:15:33.809Z,22.1
2023-05-15T08:30:33.882Z,22.2
2023-05-15T08:45:33.023Z,22.2
2023-05-15T09:00:33.809Z,22.3
2023-05-15T09:15:32.818Z,22.3
2023-05-15T09:30:33.229Z,22.3
2023-05-15T09:45:33.025Z,22.4
2023-05-15T10:00:34.083Z,22.5
2023-05-15T10:15:33.027Z,22.5
2023-05-15T10:30:33.073Z,22.5
2023-05-15T10:45:33.836Z,22.5
2023-05-15T11:00:33.336Z,22.6
2023-05-15T11:15:33.888Z,22.6
2023-05-15T11:30:33.423Z,22.6
2023-05-15T11:45:33.424Z,22.7
2023-05-15T12:00:33.996Z,22.7
2023-05-15T12:15:34.065Z,22.7
2023-05-15T12:30:33.890Z,22.8
2023-05-15T12:45:33.330Z,22.8
2023-05-15T13:00:33.598Z,23.0
2023-05-15T13:15:33.405Z,23
2023-05-15T13:30:34.016Z,23
2023-05-15T13:45:33.461Z,23
2023-05-15T14:00:33.395Z,23.0
2023-05-15T14:15:33.635Z,23
2023-05-15T14:30:33.377Z,22.9
2023-05-15T14:45:33.754Z,22.9
2023-05-15T15:00:34.032Z,22.9
2023-05-15T15:15:33.293Z,22.9
2023-05-15T15:30:33.155Z,22.8
2023-05-15T15:45:34.069Z,22.8
2023-05-15T16:00:35.028Z,22.7
2023-05-15T16:15:33.513Z,22.7
2023-05-15T16:30:44.772Z,22.6
2023-05-15T16:45:33.408Z,22.5
2023-05-15T17:00:33.272Z,22.5
2023-05-15T17:15:34.332Z,22.4
2023-05-15T17:30:34.096Z,22.4
2023-05-15T17:45:33.673Z,22.4
2023-05-15T18:00:33.273Z,22.4
2023-05-15T18:15:33.831Z,22.3
2023-05-15T18:30:33.944Z,22.3
2023-05-15T18:45:33.813Z,22.3
2023-05-15T19:00:38.271Z,22.2
2023-05-15T19:15:33.470Z,22.2
2023-05-15T19:30:33.387Z,22.1
2023-05-15T19:45:33.591Z,22.1
2023-05-15T20:00:33.428Z,22.0
2023-05-15T20:15:33.263Z,22
2023-05-15T20:45:33.440Z,21.9
2023-05-15T21:00:33.828Z,21.8
2023-05-15T21:15:33.154Z,21.8
2023-05-15T21:30:33.316Z,21.7
2023-05-15T21:45:33.869Z,21.7
2023-05-15T22:00:33.329Z,21.7
2023-05-15T22:15:33.612Z,21.6
2023-05-15T22:30:33.972Z,21.6
2023-05-15T22:45:33.399Z,21.6
2023-05-15T23:00:33.606Z,21.5
2023-05-15T23:15:32.932Z,21.5
2023-05-15T23:30:33.425Z,21.5
2023-05-15T23:45:33.734Z,21.5
